Аэропорт: Нижневартовск. Нижневартовск

ICAO: USNN

METAR:
2024-04-22 21:30:00
USNN 222130Z 31004MPS 9999 FEW027 M13/M16 Q1026 R03/0///65 NOSIG RMK QFE766
TAF:
2024-04-22 19:35:00
TAF USNN 221935Z 2221/2321 32006G14MPS 9999 BKN017 
  TEMPO 2221/2303 -SHSN FEW004 BKN016CB 
  TEMPO 2303/2309 1500 SHSN FEW003 BKN016CB 
  BECMG 2309/2311 35005G12MPS